sensor_id;sensor_type;location;lat;lon;timestamp;P1;durP1;ratioP1;P2;durP2;ratioP2
12024;SDS011;6073;53.230;10.444;2023-06-14T00:00:11;7.45;;;3.60;;
12024;SDS011;6073;53.230;10.444;2023-06-14T00:02:38;6.22;;;3.70;;
12024;SDS011;6073;53.230;10.444;2023-06-14T00:05:07;5.78;;;3.60;;
12024;SDS011;6073;53.230;10.444;2023-06-14T00:07:36;5.70;;;3.40;;
12024;SDS011;6073;53.230;10.444;2023-06-14T00:10:07;6.00;;;3.47;;
12024;SDS011;6073;53.230;10.444;2023-06-14T00:12:33;5.97;;;3.42;;
12024;SDS011;6073;53.230;10.444;2023-06-14T00:14:59;5.28;;;3.08;;
12024;SDS011;6073;53.230;10.444;2023-06-14T00:17:26;5.45;;;3.28;;
12024;SDS011;6073;53.230;10.444;2023-06-14T00:19:55;4.82;;;3.50;;
12024;SDS011;6073;53.230;10.444;2023-06-14T00:22:22;4.07;;;3.25;;
12024;SDS011;6073;53.230;10.444;2023-06-14T00:24:49;4.82;;;3.60;;
12024;SDS011;6073;53.230;10.444;2023-06-14T00:27:18;5.50;;;3.00;;
12024;SDS011;6073;53.230;10.444;2023-06-14T00:29:43;4.97;;;3.15;;
12024;SDS011;6073;53.230;10.444;2023-06-14T00:32:09;5.53;;;3.30;;
12024;SDS011;6073;53.230;10.444;2023-06-14T00:34:34;5.53;;;3.58;;
12024;SDS011;6073;53.230;10.444;2023-06-14T00:37:00;3.65;;;3.35;;
12024;SDS011;6073;53.230;10.444;2023-06-14T00:39:26;4.90;;;3.40;;
12024;SDS011;6073;53.230;10.444;2023-06-14T00:41:52;4.57;;;3.42;;
12024;SDS011;6073;53.230;10.444;2023-06-14T00:44:17;4.65;;;3.50;;
12024;SDS011;6073;53.230;10.444;2023-06-14T00:46:44;6.05;;;3.50;;
12024;SDS011;6073;53.230;10.444;2023-06-14T00:49:10;6.00;;;3.53;;
12024;SDS011;6073;53.230;10.444;2023-06-14T00:51:41;3.80;;;3.40;;
12024;SDS011;6073;53.230;10.444;2023-06-14T00:54:07;6.07;;;3.10;;
12024;SDS011;6073;53.230;10.444;2023-06-14T00:56:33;5.20;;;3.13;;
12024;SDS011;6073;53.230;10.444;2023-06-14T00:59:00;5.18;;;3.40;;
12024;SDS011;6073;53.230;10.444;2023-06-14T01:01:27;5.18;;;3.35;;
12024;SDS011;6073;53.230;10.444;2023-06-14T01:03:53;3.58;;;3.00;;
12024;SDS011;6073;53.230;10.444;2023-06-14T01:09:21;4.60;;;3.70;;
12024;SDS011;6073;53.230;10.444;2023-06-14T01:12:16;4.75;;;3.50;;
12024;SDS011;6073;53.230;10.444;2023-06-14T01:15:16;5.32;;;3.38;;
12024;SDS011;6073;53.230;10.444;2023-06-14T01:17:43;4.88;;;3.47;;
12024;SDS011;6073;53.230;10.444;2023-06-14T01:20:11;7.28;;;3.70;;
12024;SDS011;6073;53.230;10.444;2023-06-14T01:22:52;4.57;;;3.47;;
12024;SDS011;6073;53.230;10.444;2023-06-14T01:25:19;4.50;;;3.65;;
12024;SDS011;6073;53.230;10.444;2023-06-14T01:27:48;7.10;;;3.40;;
12024;SDS011;6073;53.230;10.444;2023-06-14T01:30:15;4.68;;;3.30;;
12024;SDS011;6073;53.230;10.444;2023-06-14T01:32:42;5.10;;;3.38;;
12024;SDS011;6073;53.230;10.444;2023-06-14T01:35:09;4.63;;;3.60;;
12024;SDS011;6073;53.230;10.444;2023-06-14T01:37:35;4.45;;;3.47;;
12024;SDS011;6073;53.230;10.444;2023-06-14T01:40:02;4.65;;;3.45;;
12024;SDS011;6073;53.230;10.444;2023-06-14T01:42:31;6.85;;;3.83;;
12024;SDS011;6073;53.230;10.444;2023-06-14T01:45:01;4.68;;;3.35;;
12024;SDS011;6073;53.230;10.444;2023-06-14T01:47:28;4.60;;;3.67;;
12024;SDS011;6073;53.230;10.444;2023-06-14T01:49:55;6.60;;;3.80;;
12024;SDS011;6073;53.230;10.444;2023-06-14T01:52:20;5.03;;;3.80;;
12024;SDS011;6073;53.230;10.444;2023-06-14T01:54:47;6.80;;;3.88;;
12024;SDS011;6073;53.230;10.444;2023-06-14T01:57:12;5.57;;;4.07;;
12024;SDS011;6073;53.230;10.444;2023-06-14T01:59:38;5.50;;;4.32;;
12024;SDS011;6073;53.230;10.444;2023-06-14T02:02:03;5.40;;;4.03;;
12024;SDS011;6073;53.230;10.444;2023-06-14T02:04:29;5.28;;;3.95;;
12024;SDS011;6073;53.230;10.444;2023-06-14T02:06:55;4.97;;;3.30;;
12024;SDS011;6073;53.230;10.444;2023-06-14T02:09:20;5.78;;;3.47;;
12024;SDS011;6073;53.230;10.444;2023-06-14T02:11:46;4.75;;;3.55;;
12024;SDS011;6073;53.230;10.444;2023-06-14T02:14:11;4.20;;;3.13;;
12024;SDS011;6073;53.230;10.444;2023-06-14T02:16:37;4.28;;;3.60;;
12024;SDS011;6073;53.230;10.444;2023-06-14T02:19:04;4.00;;;3.53;;
12024;SDS011;6073;53.230;10.444;2023-06-14T02:21:30;5.25;;;3.90;;
12024;SDS011;6073;53.230;10.444;2023-06-14T02:23:55;5.13;;;3.38;;
12024;SDS011;6073;53.230;10.444;2023-06-14T02:26:21;4.43;;;3.55;;
12024;SDS011;6073;53.230;10.444;2023-06-14T02:28:47;6.13;;;3.78;;
12024;SDS011;6073;53.230;10.444;2023-06-14T02:31:13;4.53;;;3.58;;
12024;SDS011;6073;53.230;10.444;2023-06-14T02:33:39;5.65;;;3.65;;
12024;SDS011;6073;53.230;10.444;2023-06-14T02:36:04;3.95;;;3.55;;
12024;SDS011;6073;53.230;10.444;2023-06-14T02:38:30;4.68;;;3.40;;
12024;SDS011;6073;53.230;10.444;2023-06-14T02:40:56;4.95;;;3.50;;
12024;SDS011;6073;53.230;10.444;2023-06-14T02:43:24;3.80;;;3.17;;
12024;SDS011;6073;53.230;10.444;2023-06-14T02:45:49;3.97;;;3.50;;
12024;SDS011;6073;53.230;10.444;2023-06-14T02:48:15;5.22;;;3.65;;
12024;SDS011;6073;53.230;10.444;2023-06-14T02:50:41;4.50;;;3.60;;
12024;SDS011;6073;53.230;10.444;2023-06-14T02:53:07;5.85;;;3.50;;
12024;SDS011;6073;53.230;10.444;2023-06-14T02:55:32;4.50;;;3.13;;
12024;SDS011;6073;53.230;10.444;2023-06-14T02:57:58;5.25;;;3.40;;
12024;SDS011;6073;53.230;10.444;2023-06-14T03:00:24;4.30;;;3.45;;
12024;SDS011;6073;53.230;10.444;2023-06-14T03:02:49;5.22;;;3.50;;
12024;SDS011;6073;53.230;10.444;2023-06-14T03:05:16;7.40;;;3.42;;
12024;SDS011;6073;53.230;10.444;2023-06-14T03:07:45;4.25;;;3.20;;
12024;SDS011;6073;53.230;10.444;2023-06-14T03:10:12;4.78;;;3.40;;
12024;SDS011;6073;53.230;10.444;2023-06-14T03:12:38;4.35;;;3.42;;
12024;SDS011;6073;53.230;10.444;2023-06-14T03:15:04;4.18;;;3.47;;
12024;SDS011;6073;53.230;10.444;2023-06-14T03:17:30;4.15;;;3.05;;
12024;SDS011;6073;53.230;10.444;2023-06-14T03:19:58;3.85;;;3.42;;
12024;SDS011;6073;53.230;10.444;2023-06-14T03:22:25;8.60;;;3.97;;
12024;SDS011;6073;53.230;10.444;2023-06-14T03:24:51;4.78;;;3.80;;
12024;SDS011;6073;53.230;10.444;2023-06-14T03:27:20;5.60;;;3.88;;
12024;SDS011;6073;53.230;10.444;2023-06-14T03:29:45;6.35;;;4.10;;
12024;SDS011;6073;53.230;10.444;2023-06-14T03:32:11;7.05;;;4.15;;
12024;SDS011;6073;53.230;10.444;2023-06-14T03:34:36;5.97;;;4.38;;
12024;SDS011;6073;53.230;10.444;2023-06-14T03:37:03;6.75;;;3.90;;
12024;SDS011;6073;53.230;10.444;2023-06-14T03:39:29;6.50;;;4.43;;
12024;SDS011;6073;53.230;10.444;2023-06-14T03:41:55;7.25;;;3.70;;
12024;SDS011;6073;53.230;10.444;2023-06-14T03:44:20;5.25;;;4.22;;
12024;SDS011;6073;53.230;10.444;2023-06-14T03:46:46;7.20;;;3.78;;
12024;SDS011;6073;53.230;10.444;2023-06-14T03:49:12;5.65;;;3.83;;
12024;SDS011;6073;53.230;10.444;2023-06-14T03:51:38;6.68;;;4.45;;
12024;SDS011;6073;53.230;10.444;2023-06-14T03:54:04;6.60;;;4.35;;
12024;SDS011;6073;53.230;10.444;2023-06-14T03:56:31;5.72;;;3.70;;
12024;SDS011;6073;53.230;10.444;2023-06-14T03:58:56;8.85;;;4.40;;
12024;SDS011;6073;53.230;10.444;2023-06-14T04:01:22;4.65;;;3.92;;
12024;SDS011;6073;53.230;10.444;2023-06-14T04:03:54;5.93;;;4.22;;
12024;SDS011;6073;53.230;10.444;2023-06-14T04:06:23;14.43;;;4.80;;
12024;SDS011;6073;53.230;10.444;2023-06-14T04:08:50;7.15;;;4.03;;
12024;SDS011;6073;53.230;10.444;2023-06-14T04:11:16;7.85;;;4.50;;
12024;SDS011;6073;53.230;10.444;2023-06-14T04:13:42;7.88;;;4.40;;
12024;SDS011;6073;53.230;10.444;2023-06-14T04:16:08;5.43;;;4.25;;
12024;SDS011;6073;53.230;10.444;2023-06-14T04:18:33;8.13;;;4.28;;
12024;SDS011;6073;53.230;10.444;2023-06-14T04:20:59;9.00;;;4.45;;
12024;SDS011;6073;53.230;10.444;2023-06-14T04:23:25;7.22;;;4.50;;
12024;SDS011;6073;53.230;10.444;2023-06-14T04:25:53;5.00;;;4.47;;
12024;SDS011;6073;53.230;10.444;2023-06-14T04:28:18;4.70;;;3.95;;
12024;SDS011;6073;53.230;10.444;2023-06-14T04:30:44;6.28;;;4.30;;
12024;SDS011;6073;53.230;10.444;2023-06-14T04:33:12;8.48;;;4.97;;
12024;SDS011;6073;53.230;10.444;2023-06-14T04:35:38;8.52;;;4.72;;
12024;SDS011;6073;53.230;10.444;2023-06-14T04:38:05;9.18;;;5.22;;
12024;SDS011;6073;53.230;10.444;2023-06-14T04:40:34;6.70;;;4.70;;
12024;SDS011;6073;53.230;10.444;2023-06-14T04:43:07;8.00;;;4.65;;
12024;SDS011;6073;53.230;10.444;2023-06-14T04:45:40;8.85;;;5.35;;
12024;SDS011;6073;53.230;10.444;2023-06-14T04:48:06;7.28;;;5.22;;
12024;SDS011;6073;53.230;10.444;2023-06-14T04:50:31;7.22;;;4.95;;
12024;SDS011;6073;53.230;10.444;2023-06-14T04:52:57;8.48;;;5.13;;
12024;SDS011;6073;53.230;10.444;2023-06-14T04:55:24;6.00;;;4.22;;
12024;SDS011;6073;53.230;10.444;2023-06-14T04:57:51;7.82;;;5.32;;
12024;SDS011;6073;53.230;10.444;2023-06-14T05:00:18;8.30;;;5.03;;
12024;SDS011;6073;53.230;10.444;2023-06-14T05:02:44;4.53;;;4.13;;
12024;SDS011;6073;53.230;10.444;2023-06-14T05:05:11;5.50;;;4.68;;
12024;SDS011;6073;53.230;10.444;2023-06-14T05:07:37;7.43;;;5.10;;
12024;SDS011;6073;53.230;10.444;2023-06-14T05:10:03;10.98;;;4.95;;
12024;SDS011;6073;53.230;10.444;2023-06-14T05:12:30;7.10;;;4.80;;
12024;SDS011;6073;53.230;10.444;2023-06-14T05:14:55;5.75;;;4.30;;
12024;SDS011;6073;53.230;10.444;2023-06-14T05:17:23;5.25;;;4.70;;
12024;SDS011;6073;53.230;10.444;2023-06-14T05:19:49;6.72;;;4.47;;
12024;SDS011;6073;53.230;10.444;2023-06-14T05:22:14;6.18;;;3.70;;
12024;SDS011;6073;53.230;10.444;2023-06-14T05:24:40;6.25;;;4.05;;
12024;SDS011;6073;53.230;10.444;2023-06-14T05:27:06;5.13;;;4.05;;
12024;SDS011;6073;53.230;10.444;2023-06-14T05:29:32;6.07;;;3.90;;
12024;SDS011;6073;53.230;10.444;2023-06-14T05:31:57;4.82;;;3.60;;
12024;SDS011;6073;53.230;10.444;2023-06-14T05:34:23;7.93;;;3.67;;
12024;SDS011;6073;53.230;10.444;2023-06-14T05:36:49;5.78;;;3.50;;
12024;SDS011;6073;53.230;10.444;2023-06-14T05:39:14;4.95;;;3.50;;
12024;SDS011;6073;53.230;10.444;2023-06-14T05:41:40;5.05;;;3.40;;
12024;SDS011;6073;53.230;10.444;2023-06-14T05:44:05;4.82;;;3.50;;
12024;SDS011;6073;53.230;10.444;2023-06-14T05:46:32;6.75;;;3.80;;
12024;SDS011;6073;53.230;10.444;2023-06-14T05:48:58;5.80;;;3.42;;
12024;SDS011;6073;53.230;10.444;2023-06-14T05:51:23;4.82;;;3.72;;
12024;SDS011;6073;53.230;10.444;2023-06-14T05:53:50;5.53;;;3.28;;
12024;SDS011;6073;53.230;10.444;2023-06-14T05:56:16;4.15;;;3.03;;
12024;SDS011;6073;53.230;10.444;2023-06-14T05:58:43;4.13;;;2.97;;
12024;SDS011;6073;53.230;10.444;2023-06-14T06:01:08;4.70;;;3.00;;
12024;SDS011;6073;53.230;10.444;2023-06-14T06:03:34;4.55;;;3.45;;
12024;SDS011;6073;53.230;10.444;2023-06-14T06:05:59;4.32;;;3.45;;
12024;SDS011;6073;53.230;10.444;2023-06-14T06:08:26;5.35;;;3.28;;
12024;SDS011;6073;53.230;10.444;2023-06-14T06:10:52;5.28;;;3.50;;
12024;SDS011;6073;53.230;10.444;2023-06-14T06:13:17;4.50;;;3.33;;
12024;SDS011;6073;53.230;10.444;2023-06-14T06:15:43;4.28;;;3.45;;
12024;SDS011;6073;53.230;10.444;2023-06-14T06:18:09;5.78;;;3.42;;
12024;SDS011;6073;53.230;10.444;2023-06-14T06:20:34;3.78;;;2.90;;
12024;SDS011;6073;53.230;10.444;2023-06-14T06:23:01;3.78;;;3.28;;
12024;SDS011;6073;53.230;10.444;2023-06-14T06:25:27;3.60;;;3.17;;
12024;SDS011;6073;53.230;10.444;2023-06-14T06:27:53;3.83;;;2.92;;
12024;SDS011;6073;53.230;10.444;2023-06-14T06:30:19;3.53;;;2.85;;
12024;SDS011;6073;53.230;10.444;2023-06-14T06:32:45;4.35;;;2.83;;
12024;SDS011;6073;53.230;10.444;2023-06-14T06:35:11;5.25;;;3.33;;
12024;SDS011;6073;53.230;10.444;2023-06-14T06:37:38;3.85;;;2.95;;
12024;SDS011;6073;53.230;10.444;2023-06-14T06:40:03;4.38;;;2.75;;
12024;SDS011;6073;53.230;10.444;2023-06-14T06:42:30;3.35;;;2.60;;
12024;SDS011;6073;53.230;10.444;2023-06-14T06:44:59;3.38;;;2.60;;
12024;SDS011;6073;53.230;10.444;2023-06-14T06:47:25;2.75;;;2.50;;
12024;SDS011;6073;53.230;10.444;2023-06-14T06:49:50;3.97;;;2.70;;
12024;SDS011;6073;53.230;10.444;2023-06-14T06:52:16;3.28;;;2.40;;
12024;SDS011;6073;53.230;10.444;2023-06-14T06:54:42;2.85;;;2.53;;
12024;SDS011;6073;53.230;10.444;2023-06-14T06:57:07;2.50;;;2.30;;
12024;SDS011;6073;53.230;10.444;2023-06-14T06:59:33;2.88;;;2.58;;
12024;SDS011;6073;53.230;10.444;2023-06-14T07:01:59;3.20;;;2.45;;
12024;SDS011;6073;53.230;10.444;2023-06-14T07:04:25;4.63;;;2.60;;
12024;SDS011;6073;53.230;10.444;2023-06-14T07:06:51;2.70;;;2.50;;
12024;SDS011;6073;53.230;10.444;2023-06-14T07:09:16;2.92;;;2.58;;
12024;SDS011;6073;53.230;10.444;2023-06-14T07:11:44;2.50;;;2.30;;
12024;SDS011;6073;53.230;10.444;2023-06-14T07:14:10;3.17;;;2.35;;
12024;SDS011;6073;53.230;10.444;2023-06-14T07:16:36;2.78;;;2.35;;
12024;SDS011;6073;53.230;10.444;2023-06-14T07:19:02;2.90;;;2.70;;
12024;SDS011;6073;53.230;10.444;2023-06-14T07:21:28;2.97;;;2.72;;
12024;SDS011;6073;53.230;10.444;2023-06-14T07:23:54;3.15;;;2.47;;
12024;SDS011;6073;53.230;10.444;2023-06-14T07:26:20;3.20;;;2.53;;
12024;SDS011;6073;53.230;10.444;2023-06-14T07:28:46;3.45;;;2.92;;
12024;SDS011;6073;53.230;10.444;2023-06-14T07:31:12;2.88;;;2.58;;
12024;SDS011;6073;53.230;10.444;2023-06-14T07:33:39;2.92;;;2.20;;
12024;SDS011;6073;53.230;10.444;2023-06-14T07:36:05;2.60;;;2.25;;
12024;SDS011;6073;53.230;10.444;2023-06-14T07:38:30;2.72;;;2.28;;
12024;SDS011;6073;53.230;10.444;2023-06-14T07:40:56;2.67;;;2.47;;
12024;SDS011;6073;53.230;10.444;2023-06-14T07:43:21;4.38;;;2.80;;
12024;SDS011;6073;53.230;10.444;2023-06-14T07:45:47;3.03;;;2.55;;
12024;SDS011;6073;53.230;10.444;2023-06-14T07:48:12;3.35;;;2.50;;
12024;SDS011;6073;53.230;10.444;2023-06-14T07:50:38;2.72;;;2.45;;
12024;SDS011;6073;53.230;10.444;2023-06-14T07:53:03;3.40;;;2.60;;
12024;SDS011;6073;53.230;10.444;2023-06-14T07:55:29;3.05;;;2.80;;
12024;SDS011;6073;53.230;10.444;2023-06-14T07:57:55;3.38;;;2.67;;
12024;SDS011;6073;53.230;10.444;2023-06-14T08:00:21;3.53;;;2.60;;
12024;SDS011;6073;53.230;10.444;2023-06-14T08:02:46;3.40;;;2.47;;
12024;SDS011;6073;53.230;10.444;2023-06-14T08:05:12;4.13;;;2.33;;
12024;SDS011;6073;53.230;10.444;2023-06-14T08:07:38;2.67;;;2.47;;
12024;SDS011;6073;53.230;10.444;2023-06-14T08:10:04;2.78;;;2.47;;
12024;SDS011;6073;53.230;10.444;2023-06-14T08:12:31;4.72;;;2.70;;
12024;SDS011;6073;53.230;10.444;2023-06-14T08:14:57;3.85;;;2.90;;
12024;SDS011;6073;53.230;10.444;2023-06-14T08:17:22;3.45;;;2.80;;
12024;SDS011;6073;53.230;10.444;2023-06-14T08:19:48;5.25;;;3.10;;
12024;SDS011;6073;53.230;10.444;2023-06-14T08:22:13;4.47;;;2.60;;
12024;SDS011;6073;53.230;10.444;2023-06-14T08:24:39;3.03;;;2.63;;
12024;SDS011;6073;53.230;10.444;2023-06-14T08:27:05;2.80;;;2.55;;
12024;SDS011;6073;53.230;10.444;2023-06-14T08:29:31;4.22;;;2.85;;
12024;SDS011;6073;53.230;10.444;2023-06-14T08:31:57;3.67;;;3.03;;
12024;SDS011;6073;53.230;10.444;2023-06-14T08:34:23;4.32;;;2.97;;
12024;SDS011;6073;53.230;10.444;2023-06-14T08:36:49;4.25;;;2.80;;
12024;SDS011;6073;53.230;10.444;2023-06-14T08:39:15;3.28;;;2.53;;
12024;SDS011;6073;53.230;10.444;2023-06-14T08:41:41;4.35;;;2.80;;
12024;SDS011;6073;53.230;10.444;2023-06-14T08:44:10;4.68;;;2.97;;
12024;SDS011;6073;53.230;10.444;2023-06-14T08:46:36;5.60;;;3.00;;
12024;SDS011;6073;53.230;10.444;2023-06-14T08:49:02;6.32;;;3.08;;
12024;SDS011;6073;53.230;10.444;2023-06-14T08:51:31;8.60;;;3.92;;
12024;SDS011;6073;53.230;10.444;2023-06-14T08:53:59;3.88;;;3.42;;
12024;SDS011;6073;53.230;10.444;2023-06-14T08:56:27;5.50;;;3.35;;
12024;SDS011;6073;53.230;10.444;2023-06-14T08:58:54;6.45;;;3.00;;
12024;SDS011;6073;53.230;10.444;2023-06-14T09:01:21;4.75;;;3.33;;
12024;SDS011;6073;53.230;10.444;2023-06-14T09:03:48;4.70;;;3.00;;
12024;SDS011;6073;53.230;10.444;2023-06-14T09:06:15;5.22;;;3.15;;
12024;SDS011;6073;53.230;10.444;2023-06-14T09:08:44;3.72;;;3.42;;
12024;SDS011;6073;53.230;10.444;2023-06-14T09:11:11;4.97;;;3.38;;
12024;SDS011;6073;53.230;10.444;2023-06-14T09:13:39;5.65;;;3.30;;
12024;SDS011;6073;53.230;10.444;2023-06-14T09:16:05;6.65;;;3.85;;
12024;SDS011;6073;53.230;10.444;2023-06-14T09:18:39;3.17;;;2.83;;
12024;SDS011;6073;53.230;10.444;2023-06-14T09:21:08;5.20;;;3.00;;
12024;SDS011;6073;53.230;10.444;2023-06-14T09:23:40;4.93;;;3.08;;
12024;SDS011;6073;53.230;10.444;2023-06-14T09:26:11;6.30;;;3.17;;
12024;SDS011;6073;53.230;10.444;2023-06-14T09:28:41;4.43;;;3.22;;
12024;SDS011;6073;53.230;10.444;2023-06-14T09:31:14;5.07;;;3.03;;
12024;SDS011;6073;53.230;10.444;2023-06-14T09:33:42;8.52;;;2.88;;
12024;SDS011;6073;53.230;10.444;2023-06-14T09:36:13;4.13;;;3.20;;
12024;SDS011;6073;53.230;10.444;2023-06-14T09:38:42;5.35;;;3.22;;
12024;SDS011;6073;53.230;10.444;2023-06-14T09:41:16;5.78;;;3.53;;
12024;SDS011;6073;53.230;10.444;2023-06-14T09:43:41;5.88;;;3.20;;
12024;SDS011;6073;53.230;10.444;2023-06-14T09:46:08;6.05;;;3.65;;
12024;SDS011;6073;53.230;10.444;2023-06-14T09:48:34;6.63;;;3.67;;
12024;SDS011;6073;53.230;10.444;2023-06-14T09:50:59;4.22;;;3.63;;
12024;SDS011;6073;53.230;10.444;2023-06-14T09:53:26;6.13;;;3.40;;
12024;SDS011;6073;53.230;10.444;2023-06-14T09:55:55;4.00;;;3.35;;
12024;SDS011;6073;53.230;10.444;2023-06-14T09:58:22;5.15;;;3.38;;
12024;SDS011;6073;53.230;10.444;2023-06-14T10:00:50;5.22;;;3.28;;
12024;SDS011;6073;53.230;10.444;2023-06-14T10:03:21;5.68;;;3.30;;
12024;SDS011;6073;53.230;10.444;2023-06-14T10:05:52;4.05;;;2.75;;
12024;SDS011;6073;53.230;10.444;2023-06-14T10:08:22;3.78;;;2.95;;
12024;SDS011;6073;53.230;10.444;2023-06-14T10:10:55;4.93;;;3.10;;
12024;SDS011;6073;53.230;10.444;2023-06-14T10:13:21;5.60;;;3.05;;
12024;SDS011;6073;53.230;10.444;2023-06-14T10:15:52;6.68;;;3.40;;
12024;SDS011;6073;53.230;10.444;2023-06-14T10:21:18;3.83;;;3.10;;
12024;SDS011;6073;53.230;10.444;2023-06-14T10:24:06;5.47;;;3.20;;
12024;SDS011;6073;53.230;10.444;2023-06-14T10:26:35;6.28;;;3.95;;
12024;SDS011;6073;53.230;10.444;2023-06-14T10:29:18;6.25;;;3.45;;
12024;SDS011;6073;53.230;10.444;2023-06-14T10:31:45;3.75;;;3.00;;
12024;SDS011;6073;53.230;10.444;2023-06-14T10:34:12;8.40;;;3.55;;
12024;SDS011;6073;53.230;10.444;2023-06-14T10:37:02;4.70;;;2.95;;
12024;SDS011;6073;53.230;10.444;2023-06-14T10:39:39;6.10;;;3.28;;
12024;SDS011;6073;53.230;10.444;2023-06-14T10:42:10;4.38;;;3.40;;
12024;SDS011;6073;53.230;10.444;2023-06-14T10:44:55;7.78;;;3.28;;
12024;SDS011;6073;53.230;10.444;2023-06-14T10:47:27;5.53;;;3.40;;
12024;SDS011;6073;53.230;10.444;2023-06-14T10:50:09;5.47;;;3.70;;
12024;SDS011;6073;53.230;10.444;2023-06-14T10:52:38;4.15;;;2.92;;
12024;SDS011;6073;53.230;10.444;2023-06-14T10:57:34;5.47;;;3.08;;
12024;SDS011;6073;53.230;10.444;2023-06-14T11:00:02;4.53;;;3.33;;
12024;SDS011;6073;53.230;10.444;2023-06-14T11:05:28;3.25;;;2.83;;
12024;SDS011;6073;53.230;10.444;2023-06-14T11:10:48;3.25;;;2.95;;
12024;SDS011;6073;53.230;10.444;2023-06-14T11:13:16;7.05;;;3.35;;
12024;SDS011;6073;53.230;10.444;2023-06-14T11:15:45;3.22;;;2.85;;
12024;SDS011;6073;53.230;10.444;2023-06-14T11:18:13;4.55;;;3.30;;
12024;SDS011;6073;53.230;10.444;2023-06-14T11:20:39;3.30;;;2.90;;
12024;SDS011;6073;53.230;10.444;2023-06-14T11:23:05;5.30;;;3.20;;
12024;SDS011;6073;53.230;10.444;2023-06-14T11:25:30;6.97;;;3.50;;
12024;SDS011;6073;53.230;10.444;2023-06-14T11:27:56;5.18;;;3.58;;
12024;SDS011;6073;53.230;10.444;2023-06-14T11:30:22;3.55;;;3.17;;
12024;SDS011;6073;53.230;10.444;2023-06-14T11:32:49;5.53;;;3.10;;
12024;SDS011;6073;53.230;10.444;2023-06-14T11:35:17;6.07;;;3.13;;
12024;SDS011;6073;53.230;10.444;2023-06-14T11:37:43;4.13;;;3.25;;
12024;SDS011;6073;53.230;10.444;2023-06-14T11:40:12;5.70;;;3.13;;
12024;SDS011;6073;53.230;10.444;2023-06-14T11:42:39;6.38;;;2.72;;
12024;SDS011;6073;53.230;10.444;2023-06-14T11:45:09;5.10;;;3.00;;
12024;SDS011;6073;53.230;10.444;2023-06-14T11:47:38;5.90;;;3.22;;
12024;SDS011;6073;53.230;10.444;2023-06-14T11:50:05;4.38;;;3.10;;
12024;SDS011;6073;53.230;10.444;2023-06-14T11:52:31;4.50;;;3.03;;
12024;SDS011;6073;53.230;10.444;2023-06-14T11:54:58;3.53;;;2.58;;
12024;SDS011;6073;53.230;10.444;2023-06-14T11:57:24;5.07;;;2.90;;
12024;SDS011;6073;53.230;10.444;2023-06-14T11:59:50;5.03;;;2.97;;
12024;SDS011;6073;53.230;10.444;2023-06-14T12:02:16;7.97;;;3.30;;
12024;SDS011;6073;53.230;10.444;2023-06-14T12:04:43;5.07;;;2.72;;
12024;SDS011;6073;53.230;10.444;2023-06-14T12:07:12;4.32;;;3.13;;
12024;SDS011;6073;53.230;10.444;2023-06-14T12:09:42;4.07;;;2.63;;
12024;SDS011;6073;53.230;10.444;2023-06-14T12:12:28;3.92;;;2.53;;
12024;SDS011;6073;53.230;10.444;2023-06-14T12:14:56;6.43;;;3.20;;
12024;SDS011;6073;53.230;10.444;2023-06-14T12:17:22;4.63;;;2.83;;
12024;SDS011;6073;53.230;10.444;2023-06-14T12:19:48;4.05;;;3.05;;
12024;SDS011;6073;53.230;10.444;2023-06-14T12:22:15;4.30;;;3.00;;
12024;SDS011;6073;53.230;10.444;2023-06-14T12:24:45;4.40;;;2.70;;
12024;SDS011;6073;53.230;10.444;2023-06-14T12:27:11;5.57;;;2.90;;
12024;SDS011;6073;53.230;10.444;2023-06-14T12:29:40;7.05;;;2.80;;
12024;SDS011;6073;53.230;10.444;2023-06-14T12:32:08;5.38;;;2.90;;
12024;SDS011;6073;53.230;10.444;2023-06-14T12:34:34;4.32;;;2.72;;
12024;SDS011;6073;53.230;10.444;2023-06-14T12:37:00;4.80;;;2.70;;
12024;SDS011;6073;53.230;10.444;2023-06-14T12:39:26;6.57;;;3.00;;
12024;SDS011;6073;53.230;10.444;2023-06-14T12:41:52;9.70;;;2.97;;
12024;SDS011;6073;53.230;10.444;2023-06-14T12:44:19;3.80;;;3.05;;
12024;SDS011;6073;53.230;10.444;2023-06-14T12:46:44;3.90;;;2.78;;
12024;SDS011;6073;53.230;10.444;2023-06-14T12:49:10;5.85;;;2.78;;
12024;SDS011;6073;53.230;10.444;2023-06-14T12:51:37;8.32;;;3.20;;
12024;SDS011;6073;53.230;10.444;2023-06-14T12:54:05;6.65;;;2.80;;
12024;SDS011;6073;53.230;10.444;2023-06-14T12:56:31;5.45;;;3.17;;
12024;SDS011;6073;53.230;10.444;2023-06-14T12:58:57;4.03;;;2.65;;
12024;SDS011;6073;53.230;10.444;2023-06-14T13:01:23;9.90;;;3.00;;
12024;SDS011;6073;53.230;10.444;2023-06-14T13:03:49;3.65;;;2.90;;
12024;SDS011;6073;53.230;10.444;2023-06-14T13:06:16;4.18;;;2.78;;
12024;SDS011;6073;53.230;10.444;2023-06-14T13:08:42;3.38;;;2.65;;
12024;SDS011;6073;53.230;10.444;2023-06-14T13:11:08;4.80;;;3.00;;
12024;SDS011;6073;53.230;10.444;2023-06-14T13:13:33;4.65;;;3.25;;
12024;SDS011;6073;53.230;10.444;2023-06-14T13:15:59;3.97;;;2.47;;
12024;SDS011;6073;53.230;10.444;2023-06-14T13:18:25;4.15;;;2.90;;
12024;SDS011;6073;53.230;10.444;2023-06-14T13:20:51;5.07;;;2.90;;
12024;SDS011;6073;53.230;10.444;2023-06-14T13:23:16;4.47;;;2.63;;
12024;SDS011;6073;53.230;10.444;2023-06-14T13:25:42;4.00;;;2.45;;
12024;SDS011;6073;53.230;10.444;2023-06-14T13:28:08;5.07;;;2.90;;
12024;SDS011;6073;53.230;10.444;2023-06-14T13:30:34;5.93;;;3.03;;
12024;SDS011;6073;53.230;10.444;2023-06-14T13:33:00;4.43;;;2.53;;
12024;SDS011;6073;53.230;10.444;2023-06-14T13:35:26;3.72;;;2.60;;
12024;SDS011;6073;53.230;10.444;2023-06-14T13:37:51;6.07;;;2.90;;
12024;SDS011;6073;53.230;10.444;2023-06-14T13:40:17;4.88;;;2.75;;
12024;SDS011;6073;53.230;10.444;2023-06-14T13:42:43;4.90;;;2.78;;
12024;SDS011;6073;53.230;10.444;2023-06-14T13:45:10;5.05;;;2.60;;
12024;SDS011;6073;53.230;10.444;2023-06-14T13:47:36;3.90;;;2.60;;
12024;SDS011;6073;53.230;10.444;2023-06-14T13:50:03;5.13;;;2.30;;
12024;SDS011;6073;53.230;10.444;2023-06-14T13:52:29;4.78;;;2.97;;
12024;SDS011;6073;53.230;10.444;2023-06-14T13:54:54;4.05;;;2.97;;
12024;SDS011;6073;53.230;10.444;2023-06-14T13:57:20;3.95;;;2.38;;
12024;SDS011;6073;53.230;10.444;2023-06-14T13:59:46;4.57;;;2.47;;
12024;SDS011;6073;53.230;10.444;2023-06-14T14:02:12;5.28;;;2.92;;
12024;SDS011;6073;53.230;10.444;2023-06-14T14:04:38;3.33;;;2.72;;
12024;SDS011;6073;53.230;10.444;2023-06-14T14:07:04;5.13;;;2.67;;
12024;SDS011;6073;53.230;10.444;2023-06-14T14:09:31;4.95;;;2.95;;
12024;SDS011;6073;53.230;10.444;2023-06-14T14:11:58;4.20;;;2.60;;
12024;SDS011;6073;53.230;10.444;2023-06-14T14:14:23;7.18;;;3.22;;
12024;SDS011;6073;53.230;10.444;2023-06-14T14:16:49;3.10;;;2.80;;
12024;SDS011;6073;53.230;10.444;2023-06-14T14:19:20;3.50;;;2.60;;
12024;SDS011;6073;53.230;10.444;2023-06-14T14:21:47;5.57;;;2.67;;
12024;SDS011;6073;53.230;10.444;2023-06-14T14:24:12;6.03;;;2.75;;
12024;SDS011;6073;53.230;10.444;2023-06-14T14:26:38;6.65;;;2.83;;
12024;SDS011;6073;53.230;10.444;2023-06-14T14:29:04;6.78;;;3.00;;
12024;SDS011;6073;53.230;10.444;2023-06-14T14:31:30;5.55;;;3.17;;
12024;SDS011;6073;53.230;10.444;2023-06-14T14:33:55;3.03;;;2.72;;
12024;SDS011;6073;53.230;10.444;2023-06-14T14:36:21;5.88;;;3.17;;
12024;SDS011;6073;53.230;10.444;2023-06-14T14:38:47;4.80;;;2.53;;
12024;SDS011;6073;53.230;10.444;2023-06-14T14:41:12;5.38;;;3.08;;
12024;SDS011;6073;53.230;10.444;2023-06-14T14:43:38;4.18;;;2.67;;
12024;SDS011;6073;53.230;10.444;2023-06-14T14:46:04;3.63;;;2.88;;
12024;SDS011;6073;53.230;10.444;2023-06-14T14:48:30;7.68;;;3.15;;
12024;SDS011;6073;53.230;10.444;2023-06-14T14:50:55;6.10;;;2.90;;
12024;SDS011;6073;53.230;10.444;2023-06-14T14:53:21;6.40;;;2.90;;
12024;SDS011;6073;53.230;10.444;2023-06-14T14:55:47;4.38;;;3.05;;
12024;SDS011;6073;53.230;10.444;2023-06-14T14:58:13;4.45;;;3.10;;
12024;SDS011;6073;53.230;10.444;2023-06-14T15:00:41;5.95;;;3.10;;